createdAt,value
2023-04-16T00:00:49.582Z,76.05
2023-04-16T00:03:21.407Z,75.89
2023-04-16T00:05:56.086Z,75.77
2023-04-16T00:08:27.851Z,76.11
2023-04-16T00:10:59.249Z,76.19
2023-04-16T00:13:30.811Z,76.29
2023-04-16T00:16:02.097Z,76.40
2023-04-16T00:18:33.640Z,76.58
2023-04-16T00:21:05.000Z,76.60
2023-04-16T00:23:36.944Z,76.84
2023-04-16T00:26:08.510Z,76.73
2023-04-16T00:28:40.299Z,76.33
2023-04-16T00:31:11.753Z,76.49
2023-04-16T00:33:43.156Z,76.21
2023-04-16T00:36:14.567Z,75.96
2023-04-16T00:38:45.972Z,75.83
2023-04-16T00:41:17.568Z,75.85
2023-04-16T00:43:48.884Z,75.81
2023-04-16T00:46:21.465Z,75.87
2023-04-16T00:48:55.409Z,75.84
2023-04-16T00:51:27.405Z,75.91
2023-04-16T00:53:59.609Z,75.84
2023-04-16T00:56:31.833Z,75.73
2023-04-16T00:59:03.248Z,75.46
2023-04-16T01:01:34.849Z,75.39
2023-04-16T01:04:07.406Z,75.50
2023-04-16T01:06:38.898Z,75.48
2023-04-16T01:09:11.457Z,75.22
2023-04-16T01:11:42.933Z,74.97
2023-04-16T01:14:14.552Z,75.06
2023-04-16T01:16:46.168Z,75.10
2023-04-16T01:19:17.608Z,74.76
2023-04-16T01:21:49.062Z,74.35
2023-04-16T01:24:20.627Z,74.66
2023-04-16T01:26:51.929Z,75.12
2023-04-16T01:29:23.167Z,74.64
2023-04-16T01:31:54.617Z,74.69
2023-04-16T01:34:25.989Z,74.77
2023-04-16T01:36:57.406Z,75.05
2023-04-16T01:39:28.860Z,74.84
2023-04-16T01:42:00.033Z,74.87
2023-04-16T01:44:31.555Z,75.09
2023-04-16T01:47:02.904Z,75.21
2023-04-16T01:49:35.141Z,75.33
2023-04-16T01:52:08.643Z,75.54
2023-04-16T01:54:40.052Z,75.81
2023-04-16T01:57:11.431Z,75.63
2023-04-16T01:59:42.912Z,75.72
2023-04-16T02:02:16.657Z,75.40
2023-04-16T02:04:48.891Z,75.45
2023-04-16T02:07:20.264Z,75.47
2023-04-16T02:09:51.752Z,75.47
2023-04-16T02:12:23.127Z,76.02
2023-04-16T02:14:54.616Z,75.86
2023-04-16T02:17:25.993Z,75.97
2023-04-16T02:19:57.553Z,75.63
2023-04-16T02:22:28.885Z,75.67
2023-04-16T02:25:00.379Z,75.69
2023-04-16T02:27:31.780Z,75.92
2023-04-16T02:30:04.607Z,75.78
2023-04-16T02:32:36.119Z,75.77
2023-04-16T02:35:08.477Z,75.77
2023-04-16T02:37:41.194Z,75.67
2023-04-16T02:40:14.753Z,75.93
2023-04-16T02:42:46.332Z,75.92
2023-04-16T02:45:18.228Z,75.98
2023-04-16T02:47:49.569Z,75.99
2023-04-16T02:50:21.475Z,76.23
2023-04-16T02:52:53.333Z,76.11
2023-04-16T02:55:24.999Z,76.22
2023-04-16T02:57:56.430Z,76.41
2023-04-16T03:00:27.937Z,76.42
2023-04-16T03:02:59.603Z,76.39
2023-04-16T03:05:31.232Z,76.73
2023-04-16T03:08:02.691Z,76.68
2023-04-16T03:10:35.299Z,76.46
2023-04-16T03:13:07.085Z,75.82
2023-04-16T03:15:38.772Z,75.87
2023-04-16T03:18:10.414Z,75.49
2023-04-16T03:20:41.756Z,75.94
2023-04-16T03:23:13.394Z,75.93
2023-04-16T03:25:47.438Z,75.74
2023-04-16T03:28:18.954Z,75.44
2023-04-16T03:30:55.388Z,75.73
2023-04-16T03:33:27.350Z,76.08
2023-04-16T03:36:01.759Z,76.24
2023-04-16T03:38:33.711Z,76.41
2023-04-16T03:41:05.387Z,76.50
2023-04-16T03:43:46.140Z,76.71
2023-04-16T03:46:29.106Z,76.36
2023-04-16T03:49:14.579Z,76.32
2023-04-16T03:51:56.760Z,76.03
2023-04-16T03:54:38.352Z,76.05
2023-04-16T03:57:17.571Z,76.11
2023-04-16T03:59:59.724Z,76.28
2023-04-16T04:02:31.654Z,76.07
2023-04-16T04:05:03.561Z,75.68
2023-04-16T04:07:35.080Z,75.73
2023-04-16T04:10:06.932Z,75.81
2023-04-16T04:12:38.326Z,75.58
2023-04-16T04:15:11.940Z,75.89
2023-04-16T04:17:43.485Z,76.02
2023-04-16T04:20:16.045Z,75.82
2023-04-16T04:22:47.341Z,75.54
2023-04-16T04:25:19.856Z,75.69
2023-04-16T04:27:51.272Z,75.74
2023-04-16T04:30:22.809Z,75.98
2023-04-16T04:32:54.154Z,75.83
2023-04-16T04:35:26.014Z,75.98
2023-04-16T04:37:57.679Z,75.62
2023-04-16T04:40:29.358Z,75.40
2023-04-16T04:43:00.801Z,75.49
2023-04-16T04:45:32.480Z,75.52
2023-04-16T04:48:04.082Z,75.36
2023-04-16T04:50:35.546Z,75.39
2023-04-16T04:53:10.482Z,75.02
2023-04-16T04:55:41.841Z,74.65
2023-04-16T04:58:13.404Z,74.44
2023-04-16T05:00:45.062Z,74.34
2023-04-16T05:03:20.836Z,74.55
2023-04-16T05:05:52.314Z,74.59
2023-04-16T05:08:23.752Z,74.50
2023-04-16T05:10:55.301Z,74.19
2023-04-16T05:13:27.588Z,74.59
2023-04-16T05:15:58.918Z,74.61
2023-04-16T05:18:30.634Z,74.66
2023-04-16T05:21:02.072Z,74.40
2023-04-16T05:23:33.952Z,74.09
2023-04-16T05:26:05.483Z,74.06
2023-04-16T05:28:37.034Z,74.26
2023-04-16T05:31:08.673Z,74.13
2023-04-16T05:33:40.761Z,74.02
2023-04-16T05:36:12.286Z,74.32
2023-04-16T05:38:43.722Z,74.38
2023-04-16T05:41:15.078Z,74.53
2023-04-16T05:43:46.619Z,74.05
2023-04-16T05:46:18.161Z,74.02
2023-04-16T05:48:49.623Z,73.73
2023-04-16T05:51:23.357Z,73.83
2023-04-16T05:53:55.005Z,72.95
2023-04-16T05:56:27.412Z,72.34
2023-04-16T05:58:59.165Z,72.45
2023-04-16T06:01:31.129Z,72.28
2023-04-16T06:04:03.908Z,72.10
2023-04-16T06:06:35.479Z,72.01
2023-04-16T06:09:07.127Z,72.42
2023-04-16T06:11:38.727Z,72.25
2023-04-16T06:14:10.160Z,71.81
2023-04-16T06:16:41.969Z,71.35
2023-04-16T06:19:13.358Z,71.12
2023-04-16T06:21:44.921Z,71.25
2023-04-16T06:24:16.353Z,71.72
2023-04-16T06:26:47.958Z,71.63
2023-04-16T06:29:21.298Z,71.49
2023-04-16T06:31:54.175Z,71.49
2023-04-16T06:34:26.313Z,71.41
2023-04-16T06:36:58.419Z,71.29
2023-04-16T06:39:30.057Z,71.55
2023-04-16T06:42:01.885Z,71.64
2023-04-16T06:44:33.389Z,71.33
2023-04-16T06:47:06.153Z,70.85
2023-04-16T06:49:37.734Z,71.33
2023-04-16T06:52:10.368Z,71.19
2023-04-16T06:54:42.295Z,71.15
2023-04-16T06:57:13.883Z,71.29
2023-04-16T06:59:45.490Z,70.95
2023-04-16T07:02:17.123Z,70.18
2023-04-16T07:04:49.375Z,70.15
2023-04-16T07:07:20.961Z,70.01
2023-04-16T07:09:52.416Z,70.37
2023-04-16T07:12:23.847Z,70.19
2023-04-16T07:14:55.193Z,69.48
2023-04-16T07:17:27.650Z,69.42
2023-04-16T07:20:03.570Z,69.05
2023-04-16T07:22:35.500Z,69.51
2023-04-16T07:25:08.714Z,69.33
2023-04-16T07:27:40.995Z,69.44
2023-04-16T07:30:14.537Z,69.35
2023-04-16T07:32:47.498Z,69.09
2023-04-16T07:35:20.857Z,69.19
2023-04-16T07:37:52.669Z,69.32
2023-04-16T07:40:24.816Z,69.27
2023-04-16T07:42:56.731Z,69.22
2023-04-16T07:45:28.446Z,68.11
2023-04-16T07:48:00.696Z,68.04
2023-04-16T07:50:32.326Z,67.86
2023-04-16T07:53:03.958Z,67.88
2023-04-16T07:55:35.932Z,68.30
2023-04-16T07:58:09.874Z,68.55
2023-04-16T08:00:42.640Z,68.47
2023-04-16T08:03:16.481Z,68.17
2023-04-16T08:05:49.446Z,68.39
2023-04-16T08:08:21.091Z,68.17
2023-04-16T08:10:56.102Z,68.52
2023-04-16T08:13:27.769Z,68.65
2023-04-16T08:15:59.325Z,68.91
2023-04-16T08:18:31.526Z,68.59
2023-04-16T08:21:02.983Z,68.29
2023-04-16T08:23:34.965Z,68.59
2023-04-16T08:26:06.456Z,68.71
2023-04-16T08:28:47.081Z,68.51
2023-04-16T08:31:20.112Z,69.14
2023-04-16T08:33:51.524Z,69.41
2023-04-16T08:36:23.120Z,68.89
2023-04-16T08:38:54.550Z,68.81
2023-04-16T08:41:29.972Z,68.64
2023-04-16T08:44:05.644Z,68.29
2023-04-16T08:46:42.256Z,67.68
2023-04-16T08:49:19.890Z,67.71
2023-04-16T08:51:54.113Z,68.08
2023-04-16T08:54:36.278Z,68.18
2023-04-16T08:57:12.083Z,67.64
2023-04-16T08:59:47.961Z,67.46
2023-04-16T09:02:20.009Z,67.90
2023-04-16T09:04:52.882Z,68.02
2023-04-16T09:07:26.156Z,68.20
2023-04-16T09:09:59.482Z,67.99
2023-04-16T09:12:31.690Z,67.57
2023-04-16T09:15:05.296Z,67.57
2023-04-16T09:17:38.509Z,67.23
2023-04-16T09:20:12.836Z,67.11
2023-04-16T09:22:45.018Z,67.10
2023-04-16T09:25:16.547Z,67.12
2023-04-16T09:27:51.089Z,66.91
2023-04-16T09:30:29.207Z,66.56
2023-04-16T09:36:14.085Z,66.98
2023-04-16T09:38:56.252Z,66.61
2023-04-16T09:41:31.554Z,67.05
2023-04-16T09:44:05.847Z,66.85
2023-04-16T09:46:42.236Z,66.20
2023-04-16T09:49:15.709Z,66.23
2023-04-16T09:51:48.825Z,65.90
2023-04-16T09:54:21.404Z,65.36
2023-04-16T09:56:53.090Z,65.36
2023-04-16T09:59:25.816Z,64.77
2023-04-16T10:02:15.886Z,64.66
2023-04-16T10:04:53.128Z,64.54
2023-04-16T10:07:29.556Z,64.85
2023-04-16T10:10:01.629Z,64.73
2023-04-16T10:12:34.150Z,64.77
2023-04-16T10:15:06.268Z,65.06
2023-04-16T10:17:38.973Z,64.40
2023-04-16T10:20:12.260Z,64.67
2023-04-16T10:22:44.154Z,64.81
2023-04-16T10:25:16.974Z,64.72
2023-04-16T10:27:49.304Z,64.00
2023-04-16T10:30:22.015Z,63.75
2023-04-16T10:32:54.079Z,63.96
2023-04-16T10:35:27.252Z,64.02
2023-04-16T10:38:21.322Z,63.91
2023-04-16T10:40:52.883Z,63.22
2023-04-16T10:43:26.833Z,63.17
2023-04-16T10:45:58.950Z,63.38
2023-04-16T10:48:46.474Z,63.35
2023-04-16T10:51:33.362Z,63.58
2023-04-16T10:54:23.192Z,63.49
2023-04-16T10:56:55.961Z,63.38
2023-04-16T10:59:31.745Z,63.26
2023-04-16T11:02:08.531Z,63.24
2023-04-16T11:04:41.269Z,62.49
2023-04-16T11:07:19.907Z,62.10
2023-04-16T11:09:59.878Z,62.12
2023-04-16T11:12:38.300Z,61.68
2023-04-16T11:15:11.804Z,61.24
2023-04-16T11:17:45.045Z,61.76
2023-04-16T11:20:22.798Z,62.10
2023-04-16T11:22:56.220Z,62.34
2023-04-16T11:25:29.961Z,62.27
2023-04-16T11:28:03.573Z,62.65
2023-04-16T11:30:36.573Z,62.13
2023-04-16T11:33:10.062Z,61.89
2023-04-16T11:35:43.747Z,62.19
2023-04-16T11:38:15.761Z,62.22
2023-04-16T11:40:51.951Z,62.12
2023-04-16T11:43:24.022Z,61.98
2023-04-16T11:46:10.255Z,61.74
2023-04-16T11:48:55.689Z,61.45
2023-04-16T11:51:27.434Z,61.46
2023-04-16T11:53:59.074Z,61.42
2023-04-16T11:56:33.179Z,61.13
2023-04-16T11:59:13.145Z,61.04
2023-04-16T12:01:48.341Z,61.10
2023-04-16T12:04:22.684Z,60.78
2023-04-16T12:07:14.072Z,60.89
2023-04-16T12:09:46.121Z,61.01
2023-04-16T12:12:32.433Z,61.02
2023-04-16T12:15:05.059Z,61.43
2023-04-16T12:17:37.814Z,61.60
2023-04-16T12:20:12.958Z,61.15
2023-04-16T12:22:48.392Z,60.98
2023-04-16T12:25:20.348Z,61.13
2023-04-16T12:27:54.306Z,61.12
2023-04-16T12:30:27.697Z,60.77
2023-04-16T12:33:17.198Z,60.13
2023-04-16T12:35:48.989Z,59.74
2023-04-16T12:38:22.813Z,59.47
2023-04-16T12:40:57.468Z,59.45
2023-04-16T12:43:29.852Z,59.69
2023-04-16T12:46:04.185Z,59.97
2023-04-16T12:48:34.199Z,60.20
2023-04-16T12:51:05.679Z,60.16
2023-04-16T12:53:37.992Z,59.91
2023-04-16T12:56:09.715Z,60.08
2023-04-16T12:58:41.352Z,59.87
2023-04-16T13:01:13.100Z,59.65
2023-04-16T13:03:44.871Z,59.73
2023-04-16T13:06:17.536Z,59.57
2023-04-16T13:08:49.172Z,59.52
2023-04-16T13:11:20.699Z,59.60
2023-04-16T13:13:52.103Z,59.60
2023-04-16T13:16:23.666Z,59.76
2023-04-16T13:18:55.507Z,59.66
2023-04-16T13:21:27.515Z,59.55
2023-04-16T13:23:59.282Z,59.42
2023-04-16T13:26:30.853Z,59.27
2023-04-16T13:29:02.456Z,59.06
2023-04-16T13:31:34.111Z,59.47
2023-04-16T13:34:06.550Z,59.29
2023-04-16T13:36:38.093Z,58.81
2023-04-16T13:39:12.146Z,58.56
2023-04-16T13:41:46.250Z,58.39
2023-04-16T13:44:17.666Z,58.54
2023-04-16T13:46:50.027Z,58.27
2023-04-16T13:49:22.019Z,57.56
2023-04-16T13:51:53.498Z,57.35
2023-04-16T13:54:25.641Z,57.29
2023-04-16T13:57:02.605Z,57.62
2023-04-16T13:59:35.240Z,57.74
2023-04-16T14:02:13.349Z,57.82
2023-04-16T14:04:45.185Z,57.67
2023-04-16T14:07:17.509Z,57.56
2023-04-16T14:09:49.018Z,57.69
2023-04-16T14:12:22.498Z,57.39
2023-04-16T14:14:53.996Z,57.35
2023-04-16T14:17:25.744Z,57.67
2023-04-16T14:19:57.644Z,57.82
2023-04-16T14:22:30.751Z,57.77
2023-04-16T14:25:03.861Z,57.57
2023-04-16T14:27:36.503Z,57.16
2023-04-16T14:30:09.383Z,56.40
2023-04-16T14:32:44.578Z,56.39
2023-04-16T14:35:17.127Z,56.22
2023-04-16T14:37:49.085Z,56.34
2023-04-16T14:40:22.080Z,56.43
2023-04-16T14:42:54.055Z,56.27
2023-04-16T14:45:29.361Z,55.84
2023-04-16T14:48:01.588Z,55.40
2023-04-16T14:50:33.321Z,55.42
2023-04-16T14:53:05.399Z,55.57
2023-04-16T14:55:37.463Z,55.66
2023-04-16T14:58:09.748Z,56.12
2023-04-16T15:00:41.512Z,56.44
2023-04-16T15:03:13.284Z,56.61
2023-04-16T15:05:45.211Z,56.76
2023-04-16T15:08:17.124Z,56.67
2023-04-16T15:10:48.691Z,56.45
2023-04-16T15:13:21.805Z,56.42
2023-04-16T15:15:53.552Z,56.59
2023-04-16T15:18:29.065Z,56.62
2023-04-16T15:21:01.511Z,56.63
2023-04-16T15:23:34.896Z,56.36
2023-04-16T15:26:07.674Z,55.98
2023-04-16T15:28:39.905Z,56.01
2023-04-16T15:31:13.064Z,55.78
2023-04-16T15:33:45.505Z,56.15
2023-04-16T15:36:21.273Z,56.29
2023-04-16T15:38:53.553Z,56.37
2023-04-16T15:41:26.429Z,56.26
2023-04-16T15:43:59.956Z,56.05
2023-04-16T15:46:36.931Z,56.46
2023-04-16T15:49:10.576Z,56.39
2023-04-16T15:51:45.333Z,56.33
2023-04-16T15:54:22.852Z,56.33
2023-04-16T15:56:56.132Z,55.95
2023-04-16T15:59:29.369Z,56.24
2023-04-16T16:02:02.227Z,56.62
2023-04-16T16:04:34.652Z,56.72
2023-04-16T16:07:07.416Z,56.47
2023-04-16T16:09:40.311Z,56.13
2023-04-16T16:12:12.971Z,56.64
2023-04-16T16:14:45.052Z,56.59
2023-04-16T16:17:18.025Z,56.23
2023-04-16T16:19:50.173Z,56.57
2023-04-16T16:22:24.199Z,56.76
2023-04-16T16:24:58.900Z,56.74
2023-04-16T16:27:32.626Z,56.98
2023-04-16T16:30:10.355Z,57.07
2023-04-16T16:32:44.673Z,57.35
2023-04-16T16:35:26.197Z,57.34
2023-04-16T16:38:06.997Z,57.23
2023-04-16T16:40:49.549Z,57.48
2023-04-16T16:43:24.310Z,57.22
2023-04-16T16:46:08.492Z,57.01
2023-04-16T16:48:51.242Z,57.12
2023-04-16T16:51:24.056Z,57.16
2023-04-16T16:54:00.922Z,57.52
2023-04-16T16:56:32.873Z,57.57
2023-04-16T16:59:19.798Z,57.89
2023-04-16T17:01:52.827Z,57.64
2023-04-16T17:04:24.859Z,57.73
2023-04-16T17:06:57.032Z,57.67
2023-04-16T17:09:30.816Z,58.18
2023-04-16T17:12:05.224Z,58.39
2023-04-16T17:14:42.331Z,58.32
2023-04-16T17:17:13.879Z,58.58
2023-04-16T17:19:46.873Z,58.56
2023-04-16T17:22:19.994Z,59.07
2023-04-16T17:24:52.642Z,59.32
2023-04-16T17:27:28.599Z,59.11
2023-04-16T17:30:02.714Z,59.00
2023-04-16T17:32:35.623Z,58.99
2023-04-16T17:35:13.326Z,59.43
2023-04-16T17:37:47.384Z,59.50
2023-04-16T17:40:21.614Z,59.59
2023-04-16T17:42:54.949Z,59.92
2023-04-16T17:45:31.488Z,60.08
2023-04-16T17:48:15.942Z,60.26
2023-04-16T17:50:54.002Z,60.75
2023-04-16T17:53:27.034Z,61.28
2023-04-16T17:55:59.294Z,61.80
2023-04-16T17:58:36.099Z,61.72
2023-04-16T18:01:11.048Z,62.06
2023-04-16T18:03:56.711Z,62.43
2023-04-16T18:06:39.089Z,62.68
2023-04-16T18:09:15.343Z,62.98
2023-04-16T18:11:47.995Z,63.18
2023-04-16T18:14:22.473Z,63.56
2023-04-16T18:16:54.982Z,63.35
2023-04-16T18:19:27.301Z,63.34
2023-04-16T18:22:01.151Z,63.79
2023-04-16T18:24:36.528Z,64.02
2023-04-16T18:27:09.093Z,64.23
2023-04-16T18:29:45.338Z,63.95
2023-04-16T18:32:18.308Z,64.35
2023-04-16T18:34:50.596Z,64.50
2023-04-16T18:37:23.060Z,64.57
2023-04-16T18:43:16.337Z,64.94
2023-04-16T18:45:48.399Z,64.81
2023-04-16T18:48:23.590Z,64.48
2023-04-16T18:51:01.425Z,64.19
2023-04-16T18:53:34.659Z,64.69
2023-04-16T18:56:07.820Z,64.83
2023-04-16T18:58:41.393Z,65.30
2023-04-16T19:01:14.760Z,66.47
2023-04-16T19:03:48.447Z,66.82
2023-04-16T19:06:21.216Z,66.48
2023-04-16T19:08:53.441Z,66.51
2023-04-16T19:11:29.794Z,66.92
2023-04-16T19:14:13.516Z,66.56
2023-04-16T19:16:50.309Z,66.68
2023-04-16T19:19:29.459Z,66.91
2023-04-16T19:22:02.765Z,66.28
2023-04-16T19:24:40.757Z,66.19
2023-04-16T19:27:13.988Z,66.20
2023-04-16T19:29:48.850Z,66.18
2023-04-16T19:32:21.819Z,66.20
2023-04-16T19:34:54.591Z,66.83
2023-04-16T19:37:31.227Z,66.99
2023-04-16T19:40:21.187Z,67.24
2023-04-16T19:42:53.979Z,67.28
2023-04-16T19:45:29.240Z,66.99
2023-04-16T19:48:03.483Z,67.13
2023-04-16T19:50:35.684Z,67.23
2023-04-16T19:53:08.357Z,67.70
2023-04-16T19:55:42.997Z,67.81
2023-04-16T19:58:15.457Z,67.80
2023-04-16T20:00:47.606Z,67.94
2023-04-16T20:03:22.173Z,67.98
2023-04-16T20:05:52.371Z,68.00
2023-04-16T20:08:24.841Z,67.58
2023-04-16T20:10:58.855Z,67.76
2023-04-16T20:13:31.702Z,68.22
2023-04-16T20:16:28.276Z,68.21
2023-04-16T20:19:08.086Z,68.45
2023-04-16T20:21:46.451Z,68.71
2023-04-16T20:24:19.175Z,68.97
2023-04-16T20:26:57.664Z,68.91
2023-04-16T20:29:29.396Z,68.94
2023-04-16T20:32:00.880Z,69.01
2023-04-16T20:34:32.476Z,69.34
2023-04-16T20:37:05.184Z,69.64
2023-04-16T20:39:39.213Z,69.75
2023-04-16T20:42:11.837Z,69.82
2023-04-16T20:44:50.788Z,69.63
2023-04-16T20:47:22.875Z,69.97
2023-04-16T20:49:55.161Z,69.82
2023-04-16T20:52:26.626Z,69.59
2023-04-16T20:54:58.195Z,69.99
2023-04-16T20:57:32.346Z,69.72
2023-04-16T21:00:06.012Z,69.68
2023-04-16T21:02:37.901Z,69.78
2023-04-16T21:05:15.237Z,69.55
2023-04-16T21:07:46.743Z,69.68
2023-04-16T21:10:20.504Z,69.99
2023-04-16T21:12:52.030Z,70.33
2023-04-16T21:15:23.417Z,70.41
2023-04-16T21:17:56.800Z,70.72
2023-04-16T21:20:30.347Z,70.62
2023-04-16T21:23:02.798Z,70.89
2023-04-16T21:25:37.575Z,70.96
2023-04-16T21:28:09.528Z,71.22
2023-04-16T21:30:40.836Z,71.21
2023-04-16T21:33:15.008Z,71.00
2023-04-16T21:35:46.363Z,71.09
2023-04-16T21:38:17.921Z,71.27
2023-04-16T21:40:51.483Z,71.21
2023-04-16T21:43:23.018Z,71.44
2023-04-16T21:45:56.891Z,71.64
2023-04-16T21:48:28.882Z,71.26
2023-04-16T21:51:06.932Z,70.93
2023-04-16T21:53:39.280Z,71.14
2023-04-16T21:56:11.505Z,71.96
2023-04-16T21:58:43.111Z,72.26
2023-04-16T22:01:14.595Z,72.57
2023-04-16T22:03:47.625Z,72.43
2023-04-16T22:06:20.728Z,72.01
2023-04-16T22:08:53.723Z,71.77
2023-04-16T22:11:25.135Z,71.58
2023-04-16T22:13:58.117Z,71.39
2023-04-16T22:16:29.559Z,71.78
2023-04-16T22:19:01.617Z,71.46
2023-04-16T22:21:33.053Z,71.51
2023-04-16T22:24:04.803Z,71.76
2023-04-16T22:26:36.148Z,72.17
2023-04-16T22:29:07.738Z,72.52
2023-04-16T22:31:39.369Z,72.55
2023-04-16T22:34:11.145Z,72.38
2023-04-16T22:36:42.667Z,72.55
2023-04-16T22:39:14.371Z,73.02
2023-04-16T22:41:45.954Z,73.19
2023-04-16T22:44:17.255Z,73.41
2023-04-16T22:46:49.102Z,73.82
2023-04-16T22:49:20.846Z,74.50
2023-04-16T22:51:52.327Z,74.31
2023-04-16T22:54:23.652Z,74.06
2023-04-16T22:56:55.020Z,74.18
2023-04-16T22:59:28.152Z,74.49
2023-04-16T23:01:59.831Z,74.59
2023-04-16T23:04:31.374Z,74.52
2023-04-16T23:07:02.834Z,74.73
2023-04-16T23:09:34.914Z,74.13
2023-04-16T23:12:06.741Z,74.40
2023-04-16T23:14:38.259Z,74.31
2023-04-16T23:17:09.858Z,74.85
2023-04-16T23:19:41.289Z,74.79
2023-04-16T23:22:13.221Z,74.48
2023-04-16T23:24:44.592Z,74.66
2023-04-16T23:27:16.035Z,74.68
2023-04-16T23:29:47.499Z,74.19
2023-04-16T23:32:18.986Z,74.07
2023-04-16T23:34:50.652Z,73.85
2023-04-16T23:37:22.362Z,74.12
2023-04-16T23:39:53.687Z,74.08
2023-04-16T23:42:25.147Z,74.15
2023-04-16T23:44:56.763Z,73.96
2023-04-16T23:47:28.312Z,73.46
2023-04-16T23:49:59.620Z,73.33
2023-04-16T23:52:30.894Z,73.19
2023-04-16T23:55:02.425Z,73.64
2023-04-16T23:57:34.006Z,73.69
